createdAt,value
2018-04-16T00:00:07.611Z,4.47
2018-04-16T00:02:36.420Z,5.07
2018-04-16T00:05:05.256Z,4.90
2018-04-16T00:07:34.867Z,4.90
2018-04-16T00:10:04.462Z,4.60
2018-04-16T00:12:33.302Z,4.73
2018-04-16T00:15:02.126Z,4.83
2018-04-16T00:17:31.288Z,4.20
2018-04-16T00:20:00.121Z,5.10
2018-04-16T00:22:29.764Z,5.13
2018-04-16T00:24:58.585Z,5.67
2018-04-16T00:27:27.422Z,4.20
2018-04-16T00:29:57.005Z,5.13
2018-04-16T00:32:32.309Z,4.73
2018-04-16T00:35:06.838Z,4.93
2018-04-16T00:37:41.248Z,5.20
2018-04-16T00:40:15.886Z,5.07
2018-04-16T00:42:50.481Z,4.53
2018-04-16T00:45:25.033Z,4.97
2018-04-16T00:47:59.578Z,4.90
2018-04-16T00:50:34.891Z,4.80
2018-04-16T00:53:09.343Z,4.83
2018-04-16T00:55:44.759Z,4.93
2018-04-16T00:58:19.428Z,4.93
2018-04-16T01:01:00.864Z,5.23
2018-04-16T01:03:35.398Z,5.67
2018-04-16T01:06:09.965Z,5.57
2018-04-16T01:08:45.326Z,5.53
2018-04-16T01:11:19.978Z,5.07
2018-04-16T01:13:54.626Z,5.43
2018-04-16T01:16:29.943Z,5.30
2018-04-16T01:19:04.556Z,5.27
2018-04-16T01:21:39.152Z,5.70
2018-04-16T01:24:13.725Z,5.90
2018-04-16T01:26:49.085Z,5.33
2018-04-16T01:29:24.341Z,6.00
2018-04-16T01:31:58.957Z,5.40
2018-04-16T01:34:33.517Z,5.67
2018-04-16T01:37:08.860Z,5.30
2018-04-16T01:39:44.297Z,5.50
2018-04-16T01:42:19.732Z,6.00
2018-04-16T01:44:54.348Z,5.77
2018-04-16T01:47:28.985Z,5.30
2018-04-16T01:50:03.544Z,6.20
2018-04-16T01:52:38.098Z,5.30
2018-04-16T01:55:12.764Z,6.20
2018-04-16T01:57:48.205Z,5.57
2018-04-16T02:00:22.841Z,6.40
2018-04-16T02:02:58.160Z,6.27
2018-04-16T02:05:32.777Z,6.43
2018-04-16T02:08:07.404Z,5.50
2018-04-16T02:10:41.985Z,6.57
2018-04-16T02:13:16.552Z,5.47
2018-04-16T02:15:51.148Z,6.83
2018-04-16T02:18:25.694Z,6.43
2018-04-16T02:21:00.149Z,6.23
2018-04-16T02:23:34.718Z,5.83
2018-04-16T02:26:09.225Z,6.40
2018-04-16T02:28:43.790Z,6.03
2018-04-16T02:31:18.329Z,6.50
2018-04-16T02:33:53.469Z,6.30
2018-04-16T02:36:28.715Z,6.60
2018-04-16T02:39:04.089Z,6.43
2018-04-16T02:41:38.685Z,6.33
2018-04-16T02:44:13.163Z,6.80
2018-04-16T02:46:47.626Z,7.93
2018-04-16T02:49:22.251Z,7.27
2018-04-16T02:51:56.824Z,7.30
2018-04-16T02:54:31.421Z,6.50
2018-04-16T02:57:06.816Z,6.63
2018-04-16T02:59:41.337Z,6.43
2018-04-16T03:02:16.029Z,7.40
2018-04-16T03:04:50.676Z,6.77
2018-04-16T03:07:25.072Z,7.27
2018-04-16T03:09:59.684Z,7.03
2018-04-16T03:12:35.096Z,7.63
2018-04-16T03:15:09.615Z,6.53
2018-04-16T03:20:46.064Z,7.00
2018-04-16T03:23:20.663Z,7.17
2018-04-16T03:25:55.217Z,6.80
2018-04-16T03:28:29.898Z,7.00
2018-04-16T03:31:04.436Z,7.03
2018-04-16T03:33:39.028Z,6.77
2018-04-16T03:36:13.541Z,7.30
2018-04-16T03:38:48.016Z,6.43
2018-04-16T03:41:22.532Z,6.80
2018-04-16T03:43:57.090Z,6.87
2018-04-16T03:46:31.752Z,7.00
2018-04-16T03:49:07.179Z,6.97
2018-04-16T03:51:38.230Z,6.70
2018-04-16T03:54:07.064Z,7.30
2018-04-16T03:56:36.315Z,7.47
2018-04-16T03:59:05.144Z,7.30
2018-04-16T04:01:33.985Z,7.50
2018-04-16T04:04:02.823Z,6.33
2018-04-16T04:06:32.420Z,7.10
2018-04-16T04:09:02.035Z,7.00
2018-04-16T04:11:30.870Z,7.33
2018-04-16T04:13:59.717Z,6.70
2018-04-16T04:16:28.566Z,7.70
2018-04-16T04:18:57.395Z,8.10
2018-04-16T04:24:14.270Z,7.50
2018-04-16T04:26:54.961Z,7.10
2018-04-16T04:29:36.168Z,6.97
2018-04-16T04:32:05.015Z,8.33
2018-04-16T04:34:34.621Z,8.30
2018-04-16T04:37:03.460Z,7.60
2018-04-16T04:39:32.297Z,7.77
2018-04-16T04:42:01.134Z,7.97
2018-04-16T04:44:29.969Z,7.30
2018-04-16T04:46:58.824Z,6.83
2018-04-16T04:49:27.660Z,7.87
2018-04-16T04:51:56.512Z,7.00
2018-04-16T04:54:25.350Z,7.70
2018-04-16T04:56:54.948Z,8.07
2018-04-16T04:59:24.574Z,8.93
2018-04-16T05:01:54.271Z,8.03
2018-04-16T05:04:23.873Z,8.37
2018-04-16T05:06:53.470Z,8.70
2018-04-16T05:09:22.317Z,8.10
2018-04-16T05:11:51.140Z,8.57
2018-04-16T05:14:21.497Z,7.77
2018-04-16T05:16:50.340Z,6.97
2018-04-16T05:19:19.176Z,7.70
2018-04-16T05:21:48.032Z,7.77
2018-04-16T05:24:16.870Z,8.90
2018-04-16T05:26:46.519Z,8.87
2018-04-16T05:29:15.373Z,8.17
2018-04-16T05:31:44.175Z,8.67
2018-04-16T05:34:13.003Z,8.57
2018-04-16T05:36:43.568Z,9.93
2018-04-16T05:39:12.421Z,10.20
2018-04-16T05:41:42.926Z,10.37
2018-04-16T05:44:17.025Z,10.07
2018-04-16T05:46:46.624Z,10.07
2018-04-16T05:49:16.260Z,9.20
2018-04-16T05:51:45.847Z,8.63
2018-04-16T05:54:14.722Z,9.40
2018-04-16T05:56:43.561Z,9.57
2018-04-16T05:59:12.402Z,11.33
2018-04-16T06:01:42.009Z,9.73
2018-04-16T06:04:10.840Z,14.53
2018-04-16T06:06:39.732Z,13.03
2018-04-16T06:09:09.329Z,13.70
2018-04-16T06:11:38.178Z,14.07
2018-04-16T06:14:07.809Z,13.50
2018-04-16T06:16:37.419Z,13.43
2018-04-16T06:19:07.051Z,12.67
2018-04-16T06:21:35.902Z,12.83
2018-04-16T06:24:05.061Z,11.33
2018-04-16T06:26:33.928Z,11.47
2018-04-16T06:29:02.777Z,12.30
2018-04-16T06:31:32.408Z,12.60
2018-04-16T06:34:01.232Z,12.07
2018-04-16T06:36:30.100Z,12.40
2018-04-16T06:38:58.958Z,13.43
2018-04-16T06:41:27.792Z,12.50
2018-04-16T06:43:57.412Z,12.23
2018-04-16T06:46:27.047Z,11.50
2018-04-16T06:48:55.876Z,10.97
2018-04-16T06:51:24.736Z,9.83
2018-04-16T06:53:53.566Z,12.30
2018-04-16T06:56:22.420Z,12.47
2018-04-16T06:58:51.272Z,12.20
2018-04-16T07:01:20.194Z,11.50
2018-04-16T07:03:49.014Z,11.70
2018-04-16T07:06:17.876Z,11.10
2018-04-16T07:08:46.718Z,16.20
2018-04-16T07:11:16.780Z,12.50
2018-04-16T07:13:45.621Z,10.83
2018-04-16T07:16:15.277Z,11.00
2018-04-16T07:18:44.121Z,11.33
2018-04-16T07:21:12.966Z,11.63
2018-04-16T07:23:41.810Z,11.50
2018-04-16T07:26:10.686Z,11.90
2018-04-16T07:28:39.534Z,12.40
2018-04-16T07:31:08.395Z,10.70
2018-04-16T07:33:38.046Z,11.30
2018-04-16T07:36:06.893Z,12.57
2018-04-16T07:38:35.753Z,11.70
2018-04-16T07:41:04.941Z,12.47
2018-04-16T07:43:33.805Z,12.30
2018-04-16T07:46:02.879Z,11.90
2018-04-16T07:48:31.736Z,11.80
2018-04-16T07:51:00.597Z,13.33
2018-04-16T07:53:29.455Z,12.53
2018-04-16T07:55:59.069Z,12.67
2018-04-16T07:58:28.680Z,12.80
2018-04-16T08:00:58.293Z,11.83
2018-04-16T08:03:27.157Z,11.87
2018-04-16T08:05:56.005Z,12.53
2018-04-16T08:08:24.859Z,12.10
2018-04-16T08:10:54.461Z,12.47
2018-04-16T08:13:23.767Z,12.07
2018-04-16T08:15:53.372Z,10.77
2018-04-16T08:18:22.229Z,10.80
2018-04-16T08:20:51.076Z,9.87
2018-04-16T08:23:19.930Z,10.20
2018-04-16T08:25:49.571Z,11.03
2018-04-16T08:28:18.411Z,11.73
2018-04-16T08:30:47.295Z,11.17
2018-04-16T08:33:16.179Z,11.13
2018-04-16T08:35:44.972Z,9.47
2018-04-16T08:38:13.872Z,8.00
2018-04-16T08:40:42.677Z,8.83
2018-04-16T08:43:11.515Z,9.43
2018-04-16T08:45:40.356Z,9.70
2018-04-16T08:48:09.214Z,9.87
2018-04-16T08:50:38.045Z,9.70
2018-04-16T08:53:07.667Z,10.87
2018-04-16T08:55:37.273Z,10.77
2018-04-16T08:58:06.909Z,10.23
2018-04-16T09:00:35.786Z,9.97
2018-04-16T09:03:04.593Z,9.93
2018-04-16T09:05:33.438Z,10.20
2018-04-16T09:08:02.568Z,10.37
2018-04-16T09:10:31.410Z,9.93
2018-04-16T09:13:00.277Z,10.33
2018-04-16T09:15:29.141Z,10.60
2018-04-16T09:17:57.984Z,9.60
2018-04-16T09:20:28.224Z,9.47
2018-04-16T09:22:57.839Z,10.30
2018-04-16T09:25:26.717Z,11.10
2018-04-16T09:27:56.342Z,8.90
2018-04-16T09:30:25.967Z,9.43
2018-04-16T09:32:55.020Z,8.97
2018-04-16T09:35:24.649Z,9.70
2018-04-16T09:37:54.257Z,9.57
2018-04-16T09:40:23.262Z,10.27
2018-04-16T09:42:52.100Z,9.93
2018-04-16T09:45:21.705Z,7.83
2018-04-16T09:47:51.309Z,8.77
2018-04-16T09:50:21.084Z,8.47
2018-04-16T09:52:49.890Z,7.90
2018-04-16T09:55:18.721Z,8.73
2018-04-16T09:57:47.584Z,9.27
2018-04-16T10:00:17.209Z,8.83
2018-04-16T10:02:52.413Z,7.90
2018-04-16T10:05:21.258Z,7.87
2018-04-16T10:07:50.105Z,7.70
2018-04-16T10:10:19.712Z,6.63
2018-04-16T10:12:48.784Z,8.23
2018-04-16T10:15:17.625Z,7.17
2018-04-16T10:17:46.476Z,7.43
2018-04-16T10:20:16.033Z,7.50
2018-04-16T10:22:44.899Z,8.30
2018-04-16T10:25:14.483Z,7.57
2018-04-16T10:27:44.089Z,6.47
2018-04-16T10:30:13.721Z,6.03
2018-04-16T10:32:43.332Z,6.47
2018-04-16T10:35:12.177Z,5.87
2018-04-16T10:37:41.034Z,5.00
2018-04-16T10:40:09.883Z,4.83
2018-04-16T10:42:38.729Z,4.80
2018-04-16T10:45:07.557Z,4.10
2018-04-16T10:47:38.315Z,4.90
2018-04-16T10:50:07.934Z,4.47
2018-04-16T10:52:39.941Z,7.63
2018-04-16T10:55:08.777Z,4.77
2018-04-16T10:57:38.381Z,4.50
2018-04-16T11:00:07.220Z,4.70
2018-04-16T11:02:36.041Z,5.17
2018-04-16T11:05:05.646Z,6.27
2018-04-16T11:07:35.377Z,6.83
2018-04-16T11:10:05.002Z,6.63
2018-04-16T11:12:33.832Z,7.87
2018-04-16T11:15:02.678Z,8.70
2018-04-16T11:17:32.265Z,8.40
2018-04-16T11:20:01.876Z,7.80
2018-04-16T11:22:31.844Z,7.73
2018-04-16T11:25:00.701Z,7.00
2018-04-16T11:27:29.526Z,7.43
2018-04-16T11:29:58.376Z,7.83
2018-04-16T11:32:27.205Z,7.77
2018-04-16T11:34:56.037Z,6.00
2018-04-16T11:37:25.653Z,9.40
2018-04-16T11:39:55.268Z,9.90
2018-04-16T11:42:24.660Z,9.33
2018-04-16T11:44:54.823Z,9.77
2018-04-16T11:47:24.446Z,10.60
2018-04-16T11:49:54.065Z,11.00
2018-04-16T11:52:22.920Z,12.00
2018-04-16T11:54:51.754Z,13.53
2018-04-16T11:57:20.847Z,12.23
2018-04-16T11:59:49.785Z,13.77
2018-04-16T12:02:18.610Z,14.70
2018-04-16T12:04:47.448Z,20.30
2018-04-16T12:07:16.315Z,23.30
2018-04-16T12:09:45.162Z,19.70
2018-04-16T12:12:14.776Z,19.43
2018-04-16T12:14:44.393Z,21.17
2018-04-16T12:17:13.265Z,21.90
2018-04-16T12:19:42.879Z,24.77
2018-04-16T12:22:12.497Z,22.33
2018-04-16T12:24:42.129Z,24.60
2018-04-16T12:27:10.984Z,24.60
2018-04-16T12:29:40.633Z,23.27
2018-04-16T12:32:09.452Z,22.40
2018-04-16T12:34:38.296Z,21.30
2018-04-16T12:37:07.160Z,20.10
2018-04-16T12:39:36.776Z,18.70
2018-04-16T12:42:06.430Z,18.53
2018-04-16T12:44:36.189Z,20.80
2018-04-16T12:47:05.811Z,22.80
2018-04-16T12:49:35.414Z,24.53
2018-04-16T12:52:04.264Z,22.70
2018-04-16T12:54:33.109Z,23.70
2018-04-16T12:57:01.971Z,23.30
2018-04-16T12:59:31.612Z,22.30
2018-04-16T13:02:00.445Z,22.40
2018-04-16T13:04:29.339Z,20.80
2018-04-16T13:06:58.145Z,23.23
2018-04-16T13:09:27.793Z,18.23
2018-04-16T13:11:56.645Z,18.00
2018-04-16T13:14:26.257Z,16.30
2018-04-16T13:16:55.932Z,15.30
2018-04-16T13:19:24.793Z,13.97
2018-04-16T13:21:53.626Z,10.13
2018-04-16T13:24:23.255Z,7.57
2018-04-16T13:26:52.872Z,6.60
2018-04-16T13:29:22.469Z,8.23
2018-04-16T13:31:52.489Z,8.10
2018-04-16T13:34:21.697Z,8.07
2018-04-16T13:36:51.318Z,8.20
2018-04-16T13:39:20.154Z,10.60
2018-04-16T13:41:49.011Z,11.27
2018-04-16T13:44:17.858Z,11.07
2018-04-16T13:46:46.716Z,12.80
2018-04-16T13:49:16.316Z,12.77
2018-04-16T13:51:46.492Z,11.47
2018-04-16T13:54:15.347Z,11.07
2018-04-16T13:56:44.972Z,11.67
2018-04-16T13:59:13.813Z,13.07
2018-04-16T14:01:44.172Z,14.80
2018-04-16T14:04:13.021Z,13.43
2018-04-16T14:06:41.888Z,11.63
2018-04-16T14:09:10.762Z,11.80
2018-04-16T14:11:39.652Z,12.93
2018-04-16T14:14:08.548Z,13.63
2018-04-16T14:16:37.419Z,13.03
2018-04-16T14:19:06.313Z,12.83
2018-04-16T14:21:35.180Z,12.70
2018-04-16T14:24:04.785Z,12.60
2018-04-16T14:26:34.410Z,11.27
2018-04-16T14:29:03.240Z,10.33
2018-04-16T14:31:32.622Z,10.07
2018-04-16T14:34:01.493Z,10.00
2018-04-16T14:36:30.756Z,10.10
2018-04-16T14:38:59.594Z,9.00
2018-04-16T14:41:28.509Z,9.93
2018-04-16T14:43:57.353Z,12.90
2018-04-16T14:46:27.732Z,11.20
2018-04-16T14:48:56.575Z,10.47
2018-04-16T14:51:26.221Z,9.17
2018-04-16T14:53:55.080Z,10.37
2018-04-16T14:56:24.695Z,10.40
2018-04-16T14:58:54.327Z,9.53
2018-04-16T15:01:23.224Z,9.43
2018-04-16T15:03:52.060Z,9.50
2018-04-16T15:06:21.716Z,9.43
2018-04-16T15:08:51.319Z,9.80
2018-04-16T15:11:20.154Z,8.50
2018-04-16T15:13:49.024Z,8.27
2018-04-16T15:16:17.870Z,8.90
2018-04-16T15:18:47.555Z,7.20
2018-04-16T15:21:17.075Z,9.20
2018-04-16T15:23:46.727Z,7.73
2018-04-16T15:26:15.558Z,8.90
2018-04-16T15:28:45.211Z,8.67
2018-04-16T15:31:14.053Z,8.50
2018-04-16T15:33:43.618Z,9.70
2018-04-16T15:36:13.209Z,9.37
2018-04-16T15:38:42.530Z,9.10
2018-04-16T15:41:11.673Z,10.60
2018-04-16T15:43:41.293Z,9.57
2018-04-16T15:48:46.092Z,7.70
2018-04-16T15:51:14.956Z,7.30
2018-04-16T15:53:44.490Z,7.73
2018-04-16T15:56:13.344Z,7.30
2018-04-16T15:58:42.178Z,6.90
2018-04-16T16:01:11.053Z,7.20
2018-04-16T16:03:39.917Z,8.00
2018-04-16T16:06:08.772Z,7.00
2018-04-16T16:08:38.297Z,7.30
2018-04-16T16:11:08.229Z,7.30
2018-04-16T16:13:38.237Z,7.37
2018-04-16T16:16:07.093Z,7.93
2018-04-16T16:18:35.992Z,7.27
2018-04-16T16:21:04.872Z,7.40
2018-04-16T16:23:34.539Z,7.90
2018-04-16T16:26:04.023Z,8.20
2018-04-16T16:28:32.854Z,7.40
2018-04-16T16:31:02.323Z,6.40
2018-04-16T16:33:31.201Z,7.03
2018-04-16T16:36:00.058Z,6.73
2018-04-16T16:38:29.497Z,6.63
2018-04-16T16:40:58.339Z,6.53
2018-04-16T16:43:28.008Z,7.30
2018-04-16T16:45:57.091Z,7.90
2018-04-16T16:48:32.869Z,7.43
2018-04-16T16:51:01.742Z,9.43
2018-04-16T16:53:30.619Z,8.30
2018-04-16T16:56:00.222Z,8.80
2018-04-16T16:58:29.841Z,6.67
2018-04-16T17:00:58.687Z,6.30
2018-04-16T17:03:27.570Z,6.70
2018-04-16T17:05:56.389Z,6.57
2018-04-16T17:08:26.025Z,6.23
2018-04-16T17:10:54.857Z,5.37
2018-04-16T17:13:24.604Z,4.90
2018-04-16T17:15:54.230Z,4.00
2018-04-16T17:18:23.112Z,4.43
2018-04-16T17:20:52.713Z,4.30
2018-04-16T17:23:21.572Z,4.50
2018-04-16T17:25:52.345Z,4.37
2018-04-16T17:28:21.214Z,4.90
2018-04-16T17:30:50.821Z,4.70
2018-04-16T17:33:20.457Z,4.67
2018-04-16T17:35:49.298Z,5.60
2018-04-16T17:38:18.156Z,5.57
2018-04-16T17:40:46.998Z,4.90
2018-04-16T17:43:16.627Z,4.80
2018-04-16T17:45:46.249Z,5.30
2018-04-16T17:48:15.133Z,4.63
2018-04-16T17:50:44.701Z,4.30
2018-04-16T17:53:14.322Z,4.20
2018-04-16T17:55:43.179Z,4.20
2018-04-16T17:58:12.034Z,4.53
2018-04-16T18:00:40.877Z,5.97
2018-04-16T18:03:10.482Z,5.03
2018-04-16T18:05:40.109Z,4.40
2018-04-16T18:08:09.656Z,4.10
2018-04-16T18:10:38.499Z,4.30
2018-04-16T18:13:07.347Z,4.67
2018-04-16T18:15:36.245Z,4.27
2018-04-16T18:18:05.096Z,3.83
2018-04-16T18:20:33.975Z,4.53
2018-04-16T18:23:02.821Z,3.87
2018-04-16T18:25:31.659Z,3.77
2018-04-16T18:28:00.510Z,4.07
2018-04-16T18:30:30.122Z,4.70
2018-04-16T18:32:59.003Z,4.27
2018-04-16T18:35:28.616Z,3.90
2018-04-16T18:37:58.255Z,4.47
2018-04-16T18:40:27.121Z,4.00
2018-04-16T18:42:56.733Z,4.60
2018-04-16T18:45:25.562Z,4.20
2018-04-16T18:47:54.423Z,4.70
2018-04-16T18:50:23.249Z,3.70
2018-04-16T18:52:52.129Z,4.70
2018-04-16T18:55:20.971Z,4.40
2018-04-16T18:57:50.553Z,4.07
2018-04-16T19:00:20.044Z,4.23
2018-04-16T19:02:48.869Z,3.90
2018-04-16T19:05:17.742Z,4.13
2018-04-16T19:07:47.369Z,4.33
2018-04-16T19:10:16.989Z,4.20
2018-04-16T19:12:45.834Z,4.07
2018-04-16T19:15:15.239Z,3.90
2018-04-16T19:17:50.438Z,4.27
2018-04-16T19:20:24.849Z,4.03
2018-04-16T19:22:53.709Z,3.87
2018-04-16T19:25:23.192Z,4.40
2018-04-16T19:27:57.806Z,4.43
2018-04-16T19:30:26.667Z,4.70
2018-04-16T19:33:01.092Z,5.43
2018-04-16T19:35:29.982Z,5.40
2018-04-16T19:37:58.826Z,4.53
2018-04-16T19:40:27.669Z,4.53
2018-04-16T19:42:56.511Z,4.23
2018-04-16T19:45:25.424Z,4.00
2018-04-16T19:47:54.263Z,4.30
2018-04-16T19:50:23.876Z,4.67
2018-04-16T19:52:52.717Z,4.77
2018-04-16T19:55:22.329Z,4.87
2018-04-16T19:57:58.962Z,6.90
2018-04-16T20:00:27.830Z,5.10
2018-04-16T20:03:02.275Z,4.40
2018-04-16T20:05:31.119Z,4.60
2018-04-16T20:08:00.745Z,3.77
2018-04-16T20:10:29.586Z,4.70
2018-04-16T20:12:58.474Z,4.50
2018-04-16T20:15:27.352Z,5.83
2018-04-16T20:17:56.212Z,17.70
2018-04-16T20:20:26.523Z,5.33
2018-04-16T20:22:56.134Z,4.50
2018-04-16T20:25:24.984Z,5.47
2018-04-16T20:27:53.834Z,5.70
2018-04-16T20:30:22.715Z,5.43
2018-04-16T20:32:51.586Z,5.90
2018-04-16T20:35:21.056Z,5.67
2018-04-16T20:37:49.940Z,5.70
2018-04-16T20:40:19.468Z,5.50
2018-04-16T20:42:49.091Z,6.00
2018-04-16T20:45:18.493Z,5.63
2018-04-16T20:47:48.109Z,5.63
2018-04-16T20:50:17.732Z,5.90
2018-04-16T20:52:47.355Z,5.80
2018-04-16T20:55:16.192Z,5.23
2018-04-16T20:57:45.061Z,5.80
2018-04-16T21:00:13.889Z,5.70
2018-04-16T21:02:43.527Z,6.53
2018-04-16T21:05:12.395Z,6.40
2018-04-16T21:07:41.238Z,6.50
2018-04-16T21:10:10.086Z,6.20
2018-04-16T21:12:39.721Z,6.93
2018-04-16T21:15:08.575Z,8.20
2018-04-16T21:17:38.203Z,8.83
2018-04-16T21:20:07.048Z,7.40
2018-04-16T21:22:36.641Z,8.00
2018-04-16T21:25:06.309Z,8.13
2018-04-16T21:27:35.149Z,8.33
2018-04-16T21:30:04.785Z,8.93
2018-04-16T21:32:34.365Z,9.23
2018-04-16T21:35:04.016Z,8.73
2018-04-16T21:37:32.854Z,7.83
2018-04-16T21:40:01.704Z,9.47
2018-04-16T21:42:30.565Z,10.00
2018-04-16T21:44:59.622Z,9.77
2018-04-16T21:47:28.580Z,9.70
2018-04-16T21:49:57.438Z,8.70
2018-04-16T21:52:26.274Z,8.63
2018-04-16T21:54:55.144Z,8.70
2018-04-16T21:57:23.971Z,9.47
2018-04-16T21:59:52.840Z,9.87
2018-04-16T22:02:21.707Z,9.30
2018-04-16T22:04:50.540Z,10.87
2018-04-16T22:07:19.383Z,10.00
2018-04-16T22:09:48.243Z,10.10
2018-04-16T22:12:17.859Z,9.10
2018-04-16T22:14:47.476Z,8.80
2018-04-16T22:17:16.319Z,9.57
2018-04-16T22:19:45.160Z,8.73
2018-04-16T22:22:14.012Z,10.80
2018-04-16T22:24:43.644Z,8.43
2018-04-16T22:27:13.243Z,9.00
2018-04-16T22:29:42.841Z,9.03
2018-04-16T22:32:12.330Z,10.07
2018-04-16T22:34:41.833Z,10.23
2018-04-16T22:37:12.103Z,9.60
2018-04-16T22:39:40.942Z,9.43
2018-04-16T22:42:10.604Z,9.00
2018-04-16T22:44:39.447Z,9.70
2018-04-16T22:47:08.293Z,10.20
2018-04-16T22:49:37.141Z,10.70
2018-04-16T22:52:06.713Z,9.70
2018-04-16T22:54:36.340Z,9.80
2018-04-16T22:57:05.953Z,10.33
2018-04-16T22:59:34.820Z,9.00
2018-04-16T23:02:03.657Z,9.37
2018-04-16T23:04:32.519Z,10.10
2018-04-16T23:07:01.432Z,10.83
2018-04-16T23:09:30.264Z,9.07
2018-04-16T23:11:59.193Z,9.33
2018-04-16T23:14:28.043Z,10.00
2018-04-16T23:16:56.873Z,10.83
2018-04-16T23:19:26.501Z,9.10
2018-04-16T23:21:55.352Z,10.90
2018-04-16T23:24:24.967Z,10.37
2018-04-16T23:26:53.824Z,10.83
2018-04-16T23:29:22.682Z,11.20
2018-04-16T23:31:51.525Z,11.23
2018-04-16T23:34:21.155Z,11.00
2018-04-16T23:36:50.019Z,11.17
2018-04-16T23:39:18.848Z,10.67
2018-04-16T23:41:47.696Z,10.50
2018-04-16T23:44:17.359Z,10.20
2018-04-16T23:46:46.206Z,9.70
2018-04-16T23:49:15.812Z,11.13
2018-04-16T23:51:44.672Z,11.13
2018-04-16T23:54:13.525Z,11.03
2018-04-16T23:56:42.448Z,10.90
2018-04-16T23:59:11.267Z,11.77
